Time;durP1;ratioP1;P1;durP2;ratioP2;P2;SDS_P1;SDS_P2;PMS_P1;PMS_P2;Temp;Humidity;BMP_temperature;BMP_pressure;BME280_temperature;BME280_humidity;BME280_pressure;Samples;Min_cycle;Max_cycle;Signal;HPM_P1;HPM_P2
2023/08/11 00:01:41;;;;;;;13.35;10.65;;;17.50;99.90;;;;;;4802656;29;20412;-51
2023/08/11 00:04:07;;;;;;;15.93;11.65;;;17.50;99.90;;;;;;4801601;29;20054;-50
2023/08/11 00:06:32;;;;;;;15.90;11.77;;;17.50;99.90;;;;;;4802423;29;20395;-51
2023/08/11 00:08:59;;;;;;;13.25;10.75;;;17.50;99.90;;;;;;4802261;29;20399;-51
2023/08/11 00:11:25;;;;;;;14.88;11.40;;;17.50;99.90;;;;;;4802827;29;20049;-50
2023/08/11 00:13:51;;;;;;;14.63;10.68;;;17.50;99.90;;;;;;4802071;29;20043;-50
2023/08/11 00:16:18;;;;;;;16.50;11.85;;;17.50;99.90;;;;;;4802115;29;20050;-51
2023/08/11 00:18:45;;;;;;;14.05;11.68;;;17.50;99.90;;;;;;4802190;29;20058;-49
2023/08/11 00:21:12;;;;;;;15.20;12.35;;;17.50;99.90;;;;;;4802180;29;20051;-50
2023/08/11 00:23:39;;;;;;;14.43;12.38;;;17.40;99.90;;;;;;4801734;29;20115;-52
2023/08/11 00:26:06;;;;;;;16.45;12.18;;;17.40;99.90;;;;;;4802371;29;20103;-51
2023/08/11 00:28:32;;;;;;;14.00;12.50;;;17.40;99.90;;;;;;4801905;29;20055;-50
2023/08/11 00:30:58;;;;;;;14.82;12.30;;;17.40;99.90;;;;;;4800732;29;20450;-50
2023/08/11 00:33:24;;;;;;;16.23;12.57;;;17.30;99.90;;;;;;4801889;29;20126;-54
2023/08/11 00:35:49;;;;;;;16.98;12.35;;;17.30;99.90;;;;;;4802629;29;20046;-49
2023/08/11 00:38:19;;;;;;;16.83;13.40;;;17.30;99.90;;;;;;4802652;29;20495;-49
2023/08/11 00:40:44;;;;;;;17.30;12.93;;;17.30;99.90;;;;;;4816451;29;20035;-49
2023/08/11 00:43:11;;;;;;;14.30;12.43;;;17.30;99.90;;;;;;4801299;29;20422;-48
2023/08/11 00:45:37;;;;;;;17.02;13.23;;;17.30;99.90;;;;;;4801566;29;20053;-51
2023/08/11 00:48:03;;;;;;;15.02;12.85;;;17.30;99.90;;;;;;4802373;29;20063;-49
2023/08/11 00:50:29;;;;;;;13.40;11.93;;;17.30;99.90;;;;;;4801947;29;20055;-49
2023/08/11 00:52:55;;;;;;;17.02;12.77;;;17.20;99.90;;;;;;4802021;29;20133;-52
2023/08/11 00:55:22;;;;;;;14.38;12.73;;;17.20;99.90;;;;;;4800051;29;20051;-50
2023/08/11 00:57:48;;;;;;;13.90;12.23;;;17.20;99.90;;;;;;4785268;29;20050;-51
2023/08/11 01:00:15;;;;;;;15.10;12.85;;;17.20;99.90;;;;;;4802095;29;20050;-51
2023/08/11 01:02:43;;;;;;;14.02;12.45;;;17.10;99.90;;;;;;4801470;29;20404;-49
2023/08/11 01:05:12;;;;;;;14.07;12.50;;;17.10;99.90;;;;;;4801391;29;20480;-52
2023/08/11 01:07:59;;;;;;;15.10;12.60;;;17.10;99.90;;;;;;4802339;29;20452;-50
2023/08/11 01:10:46;;;;;;;14.73;12.48;;;17.10;99.90;;;;;;4800922;29;20046;-50
2023/08/11 01:13:19;;;;;;;17.67;13.07;;;17.10;99.90;;;;;;4801097;29;20408;-50
2023/08/11 01:15:57;;;;;;;15.53;12.73;;;17.00;99.90;;;;;;4801435;29;20054;-52
2023/08/11 01:18:24;;;;;;;15.30;13.48;;;17.00;99.90;;;;;;4804587;29;20077;-49
2023/08/11 01:20:58;;;;;;;14.45;12.25;;;17.00;99.90;;;;;;4805623;29;20045;-50
2023/08/11 01:23:24;;;;;;;13.57;12.10;;;17.00;99.90;;;;;;4804856;29;20107;-52
2023/08/11 01:25:51;;;;;;;14.80;12.98;;;16.90;99.90;;;;;;4805223;29;20428;-51
2023/08/11 01:28:17;;;;;;;16.48;13.32;;;16.90;99.90;;;;;;4805031;29;20038;-50
2023/08/11 01:30:43;;;;;;;15.15;11.85;;;17.00;99.90;;;;;;4804986;29;20030;-50
2023/08/11 01:33:09;;;;;;;14.50;12.90;;;17.00;99.90;;;;;;4803941;29;20055;-52
2023/08/11 01:35:35;;;;;;;15.40;12.68;;;16.90;99.90;;;;;;4805525;29;20053;-50
2023/08/11 01:38:02;;;;;;;14.15;11.75;;;16.90;99.90;;;;;;4804240;29;20434;-52
2023/08/11 01:40:29;;;;;;;13.38;11.98;;;16.90;99.90;;;;;;4805194;29;20515;-50
2023/08/11 01:42:58;;;;;;;13.48;11.95;;;16.90;99.90;;;;;;4803150;29;20082;-49
2023/08/11 01:45:26;;;;;;;15.73;12.10;;;16.90;99.90;;;;;;4804297;29;20570;-50
2023/08/11 01:47:53;;;;;;;14.80;12.65;;;16.90;99.90;;;;;;4804175;29;20074;-47
2023/08/11 01:50:19;;;;;;;14.88;12.35;;;16.90;99.90;;;;;;4818710;29;20423;-51
2023/08/11 01:52:47;;;;;;;13.93;12.20;;;16.90;99.90;;;;;;4804056;29;20043;-50
2023/08/11 01:55:14;;;;;;;16.13;12.63;;;16.90;99.90;;;;;;4804660;29;20487;-48
2023/08/11 01:57:41;;;;;;;13.82;12.25;;;16.90;99.90;;;;;;4804456;29;20046;-52
2023/08/11 02:00:13;;;;;;;14.82;11.98;;;16.80;99.90;;;;;;4804390;29;20043;-53
2023/08/11 02:02:40;;;;;;;16.65;12.77;;;16.80;99.90;;;;;;4803689;29;20416;-52
2023/08/11 02:05:07;;;;;;;13.45;12.02;;;16.80;99.90;;;;;;4804598;29;20484;-52
2023/08/11 02:07:35;;;;;;;14.15;12.57;;;16.80;99.90;;;;;;4804570;29;20464;-51
2023/08/11 02:10:02;;;;;;;13.73;11.90;;;16.80;99.90;;;;;;4802774;29;20083;-52
2023/08/11 02:12:28;;;;;;;14.57;12.25;;;16.80;99.90;;;;;;4804556;29;20551;-50
2023/08/11 02:14:53;;;;;;;13.98;11.93;;;16.70;99.90;;;;;;4802361;29;20046;-52
2023/08/11 02:17:19;;;;;;;16.23;12.75;;;16.70;99.90;;;;;;4804738;29;20050;-50
2023/08/11 02:19:45;;;;;;;13.85;12.35;;;16.70;99.90;;;;;;4804716;29;20491;-51
2023/08/11 02:22:11;;;;;;;13.75;11.85;;;16.70;99.90;;;;;;4803635;29;20039;-52
2023/08/11 02:24:37;;;;;;;14.93;11.93;;;16.70;99.90;;;;;;4804245;29;20053;-50
2023/08/11 02:27:03;;;;;;;13.75;11.73;;;16.70;99.90;;;;;;4803692;29;20046;-51
2023/08/11 02:29:28;;;;;;;14.20;12.45;;;16.70;99.90;;;;;;4803607;29;20768;-50
2023/08/11 02:31:54;;;;;;;13.90;12.32;;;16.70;99.90;;;;;;4804173;29;20450;-51
2023/08/11 02:34:20;;;;;;;15.05;12.13;;;16.60;99.90;;;;;;4804338;29;20039;-50
2023/08/11 02:36:47;;;;;;;13.48;11.88;;;16.60;99.90;;;;;;4803215;29;20087;-51
2023/08/11 02:39:13;;;;;;;13.82;12.32;;;16.50;99.90;;;;;;4802785;29;20054;-51
2023/08/11 02:41:39;;;;;;;14.02;10.50;;;16.50;99.90;;;;;;4803915;29;20047;-50
2023/08/11 02:44:04;;;;;;;13.55;10.75;;;16.50;99.90;;;;;;4803716;29;20783;-51
2023/08/11 02:46:31;;;;;;;14.70;11.02;;;16.50;99.90;;;;;;4801920;29;20096;-50
2023/08/11 02:48:57;;;;;;;12.77;11.48;;;16.40;99.90;;;;;;4803862;29;20066;-50
2023/08/11 02:51:23;;;;;;;13.05;9.75;;;16.40;99.90;;;;;;4803275;29;20059;-49
2023/08/11 02:53:48;;;;;;;12.50;10.43;;;16.40;99.90;;;;;;4802484;29;20062;-53
2023/08/11 02:56:15;;;;;;;11.70;10.50;;;16.40;99.90;;;;;;4803726;29;20038;-50
2023/08/11 02:58:43;;;;;;;14.38;10.57;;;16.40;99.90;;;;;;4803782;29;20445;-49
2023/08/11 03:01:09;;;;;;;13.25;9.68;;;16.40;99.90;;;;;;4803295;29;20112;-50
2023/08/11 03:03:35;;;;;;;11.73;10.00;;;16.40;99.90;;;;;;4802652;29;20046;-52
2023/08/11 03:06:01;;;;;;;16.25;11.10;;;16.40;99.90;;;;;;4803554;29;20104;-50
2023/08/11 03:08:27;;;;;;;12.02;10.25;;;16.40;99.90;;;;;;4804009;29;20039;-52
2023/08/11 03:10:53;;;;;;;12.43;10.18;;;16.40;99.90;;;;;;4803353;29;20432;-50
2023/08/11 03:13:19;;;;;;;15.82;9.70;;;16.30;99.90;;;;;;4803001;29;20487;-52
2023/08/11 03:15:45;;;;;;;13.35;10.52;;;16.30;99.90;;;;;;4803016;29;20419;-48
2023/08/11 03:18:11;;;;;;;12.80;10.57;;;16.30;99.90;;;;;;4802313;29;20342;-50
2023/08/11 03:20:37;;;;;;;11.70;10.43;;;16.30;99.90;;;;;;4817618;29;20056;-50
2023/08/11 03:23:04;;;;;;;13.63;10.38;;;16.30;99.90;;;;;;4802397;29;20042;-50
2023/08/11 03:25:30;;;;;;;12.88;10.57;;;16.30;99.90;;;;;;4802416;29;20411;-49
2023/08/11 03:27:56;;;;;;;13.52;9.90;;;16.20;99.90;;;;;;4801392;29;20046;-47
2023/08/11 03:30:23;;;;;;;12.60;10.68;;;16.20;99.90;;;;;;4802248;29;20034;-51
2023/08/11 03:32:49;;;;;;;14.13;10.63;;;16.20;99.90;;;;;;4803344;29;20499;-49
2023/08/11 03:35:17;;;;;;;13.07;10.57;;;16.20;99.90;;;;;;4802145;29;20042;-52
2023/08/11 03:37:43;;;;;;;13.85;10.68;;;16.20;99.90;;;;;;4802438;29;20046;-47
2023/08/11 03:40:12;;;;;;;12.57;10.13;;;16.20;99.90;;;;;;4802544;29;20046;-51
2023/08/11 03:42:42;;;;;;;13.65;10.88;;;16.20;99.90;;;;;;4802815;29;20051;-49
2023/08/11 03:45:11;;;;;;;12.55;10.77;;;16.20;99.90;;;;;;4801051;29;20119;-49
2023/08/11 03:47:38;;;;;;;13.55;10.13;;;16.10;99.90;;;;;;4803006;29;20580;-47
2023/08/11 03:50:04;;;;;;;11.55;10.32;;;16.10;99.90;;;;;;4802722;29;20058;-49
2023/08/11 03:52:30;;;;;;;12.98;11.20;;;16.00;99.90;;;;;;4801028;29;20046;-52
2023/08/11 03:54:56;;;;;;;11.95;10.68;;;16.10;99.90;;;;;;4802832;29;20053;-49
2023/08/11 03:57:22;;;;;;;14.07;9.73;;;16.00;99.90;;;;;;4801685;29;20059;-50
2023/08/11 03:59:48;;;;;;;13.35;11.40;;;16.00;99.90;;;;;;4801196;29;20460;-51
2023/08/11 04:02:13;;;;;;;12.60;11.27;;;16.00;99.90;;;;;;4802830;29;20111;-51
2023/08/11 04:04:39;;;;;;;13.85;11.15;;;15.90;99.90;;;;;;4802060;29;20174;-53
2023/08/11 04:07:05;;;;;;;15.48;11.40;;;15.90;99.90;;;;;;4800480;29;20034;-52
2023/08/11 04:09:31;;;;;;;13.68;11.50;;;15.90;99.90;;;;;;4802410;29;20046;-52
2023/08/11 04:11:57;;;;;;;12.45;10.95;;;15.90;99.90;;;;;;4802478;29;20038;-50
2023/08/11 04:14:23;;;;;;;14.05;11.30;;;15.90;99.90;;;;;;4801141;29;20061;-48
2023/08/11 04:16:48;;;;;;;13.05;11.43;;;15.90;99.90;;;;;;4802358;29;20047;-49
2023/08/11 04:19:14;;;;;;;13.18;10.93;;;15.80;99.90;;;;;;4802122;29;20074;-53
2023/08/11 04:21:40;;;;;;;12.55;11.18;;;15.90;99.90;;;;;;4802060;29;20039;-52
2023/08/11 04:24:06;;;;;;;12.73;11.15;;;15.80;99.90;;;;;;4801038;29;20467;-51
2023/08/11 04:26:36;;;;;;;14.90;11.43;;;15.80;99.90;;;;;;4802843;29;20073;-51
2023/08/11 04:29:01;;;;;;;13.50;11.13;;;15.80;99.90;;;;;;4802333;29;20111;-52
2023/08/11 04:31:28;;;;;;;13.13;10.68;;;15.80;99.90;;;;;;4801996;29;20082;-48
2023/08/11 04:33:53;;;;;;;13.68;10.93;;;15.90;99.90;;;;;;4801893;29;20053;-52
2023/08/11 04:36:19;;;;;;;12.68;10.98;;;15.90;99.90;;;;;;4801855;29;20043;-48
2023/08/11 04:38:45;;;;;;;16.17;11.18;;;15.90;99.90;;;;;;4815156;29;20043;-51
2023/08/11 04:41:11;;;;;;;12.55;11.00;;;15.90;99.90;;;;;;4802302;29;20125;-51
2023/08/11 04:43:37;;;;;;;12.20;10.55;;;15.80;99.90;;;;;;4800076;29;20460;-51
2023/08/11 04:46:03;;;;;;;15.68;11.27;;;15.90;99.90;;;;;;4800779;29;20051;-51
2023/08/11 04:48:30;;;;;;;14.52;11.18;;;15.90;99.90;;;;;;4800679;29;20142;-48
2023/08/11 04:50:56;;;;;;;14.27;11.35;;;15.90;99.90;;;;;;4799410;29;20523;-48
2023/08/11 04:53:22;;;;;;;13.15;10.55;;;15.90;99.90;;;;;;4804132;29;20115;-51
2023/08/11 04:55:48;;;;;;;12.18;10.88;;;16.00;99.90;;;;;;4806229;29;20496;-49
2023/08/11 04:58:14;;;;;;;13.20;10.70;;;16.00;99.90;;;;;;4805436;29;20039;-51
2023/08/11 05:00:40;;;;;;;15.90;10.95;;;16.00;99.90;;;;;;4805266;29;20043;-48
2023/08/11 05:03:05;;;;;;;13.10;11.07;;;16.00;99.90;;;;;;4805016;29;20039;-52
2023/08/11 05:05:31;;;;;;;12.32;10.38;;;16.00;99.90;;;;;;4804971;29;20047;-51
2023/08/11 05:07:57;;;;;;;13.18;10.90;;;16.10;99.90;;;;;;4803601;29;20153;-50
2023/08/11 05:10:23;;;;;;;14.63;10.10;;;16.10;99.90;;;;;;4805338;29;20116;-51
2023/08/11 05:12:49;;;;;;;14.00;10.77;;;16.10;99.90;;;;;;4804888;29;20455;-51
2023/08/11 05:15:15;;;;;;;14.88;10.95;;;16.10;99.90;;;;;;4804123;29;20054;-50
2023/08/11 05:17:40;;;;;;;16.00;10.18;;;16.10;99.90;;;;;;4805343;29;20179;-51
2023/08/11 05:20:07;;;;;;;12.52;10.27;;;16.10;99.90;;;;;;4805308;29;20047;-51
2023/08/11 05:22:34;;;;;;;11.50;10.30;;;16.20;99.90;;;;;;4803933;29;20057;-51
2023/08/11 05:25:05;;;;;;;13.20;10.55;;;16.30;99.90;;;;;;4805401;29;20061;-52
2023/08/11 05:27:31;;;;;;;13.18;10.68;;;16.30;99.90;;;;;;4804872;29;20131;-49
2023/08/11 05:29:57;;;;;;;14.32;10.73;;;16.40;99.90;;;;;;4805175;29;20035;-48
2023/08/11 05:32:26;;;;;;;13.18;10.15;;;16.40;99.90;;;;;;4805152;29;20503;-50
2023/08/11 05:34:55;;;;;;;13.00;9.93;;;16.50;99.90;;;;;;4803961;29;20122;-51
2023/08/11 05:37:24;;;;;;;13.23;10.88;;;16.40;99.90;;;;;;4805083;29;20081;-50
2023/08/11 05:39:53;;;;;;;13.60;11.35;;;16.50;99.90;;;;;;4805046;29;20065;-50
2023/08/11 05:42:19;;;;;;;13.40;10.43;;;16.60;99.90;;;;;;4804786;29;20047;-52
2023/08/11 05:44:45;;;;;;;13.15;10.68;;;16.70;99.90;;;;;;4803694;29;20059;-52
2023/08/11 05:47:11;;;;;;;12.32;10.23;;;16.80;99.90;;;;;;4804831;29;20039;-51
2023/08/11 05:49:36;;;;;;;12.80;10.40;;;16.90;99.90;;;;;;4818596;29;20595;-51
2023/08/11 05:52:02;;;;;;;11.55;10.05;;;16.90;99.90;;;;;;4805215;29;20042;-50
2023/08/11 05:54:28;;;;;;;15.27;10.63;;;16.90;99.90;;;;;;4804818;29;20082;-52
2023/08/11 05:56:54;;;;;;;14.27;9.68;;;17.00;99.90;;;;;;4802855;29;20035;-52
2023/08/11 05:59:23;;;;;;;15.23;10.57;;;17.00;99.90;;;;;;4804199;29;20099;-50
2023/08/11 06:01:49;;;;;;;13.38;10.20;;;17.10;99.90;;;;;;4804713;29;20046;-50
2023/08/11 06:04:14;;;;;;;14.65;10.82;;;17.10;99.90;;;;;;4804022;29;20043;-51
2023/08/11 06:06:40;;;;;;;15.48;10.20;;;17.20;99.90;;;;;;4804132;29;20433;-49
2023/08/11 06:09:07;;;;;;;11.55;9.60;;;17.20;99.90;;;;;;4804573;29;20042;-53
2023/08/11 06:11:33;;;;;;;12.60;10.02;;;17.20;99.90;;;;;;4802960;29;20042;-49
2023/08/11 06:13:59;;;;;;;11.52;9.55;;;17.30;99.90;;;;;;4803436;29;20401;-50
2023/08/11 06:16:25;;;;;;;12.18;9.45;;;17.30;99.90;;;;;;4803879;29;20046;-50
2023/08/11 06:18:51;;;;;;;11.38;10.15;;;17.40;99.90;;;;;;4803585;29;20050;-50
2023/08/11 06:21:17;;;;;;;11.63;9.95;;;17.50;99.90;;;;;;4804680;29;20038;-51
2023/08/11 06:23:43;;;;;;;11.73;9.20;;;17.50;99.90;;;;;;4803946;29;20479;-51
2023/08/11 06:26:09;;;;;;;14.73;9.63;;;17.60;99.90;;;;;;4804666;29;20103;-50
2023/08/11 06:28:35;;;;;;;14.52;10.13;;;17.60;99.90;;;;;;4804347;29;20447;-52
2023/08/11 06:31:04;;;;;;;17.02;9.20;;;17.70;99.90;;;;;;4803816;29;20081;-52
2023/08/11 06:33:29;;;;;;;13.50;9.20;;;17.70;99.90;;;;;;4804156;29;20046;-52
2023/08/11 06:35:55;;;;;;;12.63;9.18;;;17.80;99.90;;;;;;4803069;29;20499;-50
2023/08/11 06:38:21;;;;;;;13.23;8.73;;;17.90;99.90;;;;;;4804694;29;20054;-50
2023/08/11 06:40:47;;;;;;;12.93;9.48;;;18.00;99.90;;;;;;4803856;29;20465;-53
2023/08/11 06:43:13;;;;;;;16.00;9.65;;;18.00;99.90;;;;;;4804011;29;20046;-50
2023/08/11 06:45:39;;;;;;;12.00;9.10;;;18.10;99.90;;;;;;4803690;29;20069;-48
2023/08/11 06:48:05;;;;;;;13.88;9.25;;;18.20;99.90;;;;;;4804195;29;20045;-53
2023/08/11 06:50:30;;;;;;;13.00;9.15;;;18.20;99.90;;;;;;4803250;29;20066;-52
2023/08/11 06:52:56;;;;;;;12.55;9.07;;;18.30;99.90;;;;;;4817435;29;20043;-48
2023/08/11 06:55:22;;;;;;;16.35;9.23;;;18.40;99.90;;;;;;4803916;29;20099;-50
2023/08/11 06:57:47;;;;;;;13.00;8.85;;;18.40;99.90;;;;;;4802334;29;20046;-51
2023/08/11 07:00:14;;;;;;;12.30;9.10;;;18.50;99.90;;;;;;4803205;29;20042;-51
2023/08/11 07:02:39;;;;;;;11.05;8.82;;;18.60;99.90;;;;;;4802690;29;20051;-53
2023/08/11 07:05:05;;;;;;;12.70;9.43;;;18.60;99.90;;;;;;4803877;29;20035;-51
2023/08/11 07:07:31;;;;;;;13.57;9.13;;;18.70;99.90;;;;;;4803563;29;20030;-51
2023/08/11 07:09:57;;;;;;;17.05;9.13;;;18.70;99.90;;;;;;4803251;29;20042;-50
2023/08/11 07:12:23;;;;;;;12.80;9.05;;;18.80;99.90;;;;;;4803185;29;20038;-52
2023/08/11 07:14:50;;;;;;;10.10;8.48;;;18.80;99.90;;;;;;4802305;29;20092;-50
2023/08/11 07:17:15;;;;;;;10.18;8.15;;;18.90;99.90;;;;;;4803404;29;20039;-52
2023/08/11 07:19:41;;;;;;;11.98;9.00;;;19.00;99.90;;;;;;4803176;29;20109;-49
2023/08/11 07:22:07;;;;;;;11.38;9.27;;;19.10;99.90;;;;;;4802748;29;20046;-49
2023/08/11 07:24:33;;;;;;;12.82;8.45;;;19.10;99.90;;;;;;4803577;29;20046;-50
2023/08/11 07:26:58;;;;;;;10.55;8.27;;;19.20;99.90;;;;;;4801208;29;20388;-52
2023/08/11 07:29:24;;;;;;;11.65;8.20;;;19.30;99.90;;;;;;4801976;29;20384;-49
2023/08/11 07:31:50;;;;;;;11.77;7.80;;;19.50;99.90;;;;;;4803468;29;20045;-52
2023/08/11 07:34:17;;;;;;;12.57;7.75;;;19.50;99.90;;;;;;4802031;29;20045;-51
2023/08/11 07:36:43;;;;;;;11.52;7.47;;;19.60;99.90;;;;;;4802323;29;20045;-52
2023/08/11 07:39:09;;;;;;;10.63;7.43;;;19.70;99.90;;;;;;4803064;29;20091;-50
2023/08/11 07:41:36;;;;;;;11.98;7.18;;;19.80;99.90;;;;;;4803059;29;20543;-50
2023/08/11 07:44:02;;;;;;;12.98;8.02;;;19.80;99.90;;;;;;4802093;29;20137;-52
2023/08/11 07:46:28;;;;;;;10.27;7.68;;;19.90;99.90;;;;;;4802472;29;20047;-49
2023/08/11 07:48:54;;;;;;;8.93;7.15;;;20.10;99.90;;;;;;4802805;29;20050;-50
2023/08/11 07:51:19;;;;;;;11.80;7.85;;;20.10;99.90;;;;;;4800850;29;20061;-51
2023/08/11 07:53:45;;;;;;;13.60;7.78;;;20.10;99.90;;;;;;4800884;29;20058;-53
2023/08/11 07:56:12;;;;;;;13.23;7.30;;;20.20;99.90;;;;;;4800730;29;20046;-51
2023/08/11 07:58:38;;;;;;;10.68;7.28;;;20.30;99.90;;;;;;4802844;29;20042;-51
2023/08/11 08:01:05;;;;;;;13.68;7.18;;;20.30;99.90;;;;;;4802657;29;20450;-49
2023/08/11 08:03:30;;;;;;;10.80;7.80;;;20.40;99.90;;;;;;4801523;29;20043;-51
2023/08/11 08:05:56;;;;;;;9.88;5.88;;;20.50;99.90;;;;;;4802050;29;20057;-52
2023/08/11 08:08:22;;;;;;;10.43;6.25;;;20.50;99.90;;;;;;4802175;29;20046;-53
2023/08/11 08:10:48;;;;;;;10.45;6.35;;;20.70;99.90;;;;;;4801942;29;20070;-51
2023/08/11 08:13:13;;;;;;;8.73;6.50;;;20.70;99.90;;;;;;4801911;29;20495;-53
2023/08/11 08:15:39;;;;;;;9.63;6.05;;;20.80;99.90;;;;;;4801848;29;20068;-52
2023/08/11 08:18:05;;;;;;;9.32;5.53;;;20.80;99.90;;;;;;4802377;29;20035;-50
2023/08/11 08:20:31;;;;;;;10.20;5.63;;;20.90;99.90;;;;;;4801661;29;20038;-52
2023/08/11 08:22:57;;;;;;;13.65;6.00;;;21.00;99.90;;;;;;4801930;29;20446;-51
2023/08/11 08:25:23;;;;;;;9.20;5.57;;;21.00;99.90;;;;;;4800634;29;20055;-49
2023/08/11 08:27:49;;;;;;;9.93;5.70;;;21.10;99.90;;;;;;4816868;29;20051;-50
2023/08/11 08:30:15;;;;;;;8.75;5.05;;;21.10;99.90;;;;;;4800198;29;20045;-51
2023/08/11 08:32:42;;;;;;;12.15;5.38;;;21.20;99.90;;;;;;4802533;29;20051;-52
2023/08/11 08:35:09;;;;;;;9.45;5.03;;;21.30;99.90;;;;;;4800561;29;20053;-51
2023/08/11 08:37:35;;;;;;;8.68;4.30;;;21.30;99.90;;;;;;4801128;29;20108;-52
2023/08/11 08:40:01;;;;;;;9.07;4.75;;;21.40;99.90;;;;;;4802158;29;20050;-50
2023/08/11 08:42:28;;;;;;;8.55;5.00;;;21.40;99.90;;;;;;4802188;29;20043;-52
2023/08/11 08:44:54;;;;;;;9.80;5.57;;;21.50;99.90;;;;;;4801167;29;20043;-50
2023/08/11 08:47:22;;;;;;;8.80;4.78;;;21.60;99.90;;;;;;4801785;29;20121;-49
2023/08/11 08:49:48;;;;;;;7.57;4.70;;;21.70;99.90;;;;;;4800865;29;20090;-50
2023/08/11 08:52:15;;;;;;;8.93;4.80;;;21.80;99.90;;;;;;4801885;29;20090;-51
2023/08/11 08:54:42;;;;;;;9.35;4.82;;;21.90;99.90;;;;;;4801290;29;20059;-52
2023/08/11 08:57:09;;;;;;;8.32;5.03;;;22.00;99.90;;;;;;4802234;29;20050;-52
2023/08/11 08:59:38;;;;;;;7.65;4.57;;;22.10;99.90;;;;;;4801685;29;20041;-52
2023/08/11 09:02:06;;;;;;;9.15;4.82;;;22.30;99.90;;;;;;4801755;29;20042;-52
2023/08/11 09:04:33;;;;;;;11.13;4.78;;;22.30;99.90;;;;;;4800979;29;20432;-50
2023/08/11 09:06:59;;;;;;;10.90;4.70;;;22.50;99.90;;;;;;4801588;29;20043;-52
2023/08/11 09:09:27;;;;;;;8.48;4.78;;;22.60;99.90;;;;;;4802136;29;20548;-48
2023/08/11 09:11:54;;;;;;;10.05;4.40;;;22.70;99.90;;;;;;4801713;29;20049;-52
2023/08/11 09:14:21;;;;;;;6.95;4.22;;;22.80;99.90;;;;;;4801165;29;20051;-49
2023/08/11 09:16:50;;;;;;;8.88;4.82;;;23.00;99.90;;;;;;4800483;29;20051;-52
2023/08/11 09:19:15;;;;;;;9.20;4.93;;;23.10;99.90;;;;;;4799884;29;20051;-51
2023/08/11 09:21:43;;;;;;;7.75;4.40;;;23.30;99.90;;;;;;4800333;29;20062;-52
2023/08/11 09:24:15;;;;;;;8.20;4.18;;;23.50;99.90;;;;;;4802162;29;20488;-53
2023/08/11 09:26:45;;;;;;;9.70;4.53;;;23.60;99.90;;;;;;4801213;29;20046;-52
2023/08/11 09:29:12;;;;;;;8.50;4.35;;;23.70;99.90;;;;;;4815593;29;20179;-51
2023/08/11 09:31:39;;;;;;;9.25;4.40;;;23.80;99.90;;;;;;4801302;29;20444;-54
2023/08/11 09:34:16;;;;;;;7.90;4.40;;;24.00;99.90;;;;;;4801635;29;20057;-53
2023/08/11 09:36:43;;;;;;;8.38;4.10;;;24.00;99.90;;;;;;4801315;29;20066;-48
2023/08/11 09:39:09;;;;;;;8.23;4.15;;;24.10;99.90;;;;;;4801748;29;20058;-52
2023/08/11 09:41:47;;;;;;;8.95;4.15;;;24.20;99.90;;;;;;4802442;29;20047;-50
2023/08/11 09:44:17;;;;;;;9.40;4.38;;;24.30;99.90;;;;;;4802743;29;20058;-50
2023/08/11 09:46:44;;;;;;;7.05;3.88;;;24.40;99.90;;;;;;4804647;29;20046;-51
2023/08/11 09:49:10;;;;;;;7.95;3.38;;;24.50;99.90;;;;;;4804980;29;20548;-51
2023/08/11 09:51:37;;;;;;;7.20;3.25;;;24.60;99.90;;;;;;4804828;29;20380;-50
2023/08/11 09:54:06;;;;;;;7.20;3.60;;;24.70;99.90;;;;;;4803969;29;20180;-47
2023/08/11 09:56:35;;;;;;;7.30;3.63;;;24.80;99.90;;;;;;4818407;29;20063;-52
2023/08/11 09:59:09;;;;;;;8.43;3.80;;;24.80;99.90;;;;;;4804282;29;20051;-50
2023/08/11 10:01:36;;;;;;;6.85;3.38;;;24.90;99.90;;;;;;4804205;29;20054;-49
2023/08/11 10:04:07;;;;;;;6.18;3.20;;;25.00;99.90;;;;;;4788147;29;20122;-50
2023/08/11 10:06:36;;;;;;;8.27;3.78;;;25.10;99.90;;;;;;4804210;29;20483;-52
2023/08/11 10:09:03;;;;;;;11.02;3.80;;;25.10;99.90;;;;;;4804490;29;20057;-50
2023/08/11 10:11:33;;;;;;;9.07;3.50;;;25.20;99.90;;;;;;4804326;29;20035;-52
2023/08/11 10:14:02;;;;;;;9.48;4.32;;;25.20;99.90;;;;;;4804054;29;20045;-52
2023/08/11 10:16:28;;;;;;;7.20;4.15;;;25.30;99.90;;;;;;4803528;29;20415;-52
2023/08/11 10:18:56;;;;;;;6.07;3.25;;;25.40;99.90;;;;;;4804089;29;20043;-53
2023/08/11 10:21:24;;;;;;;11.18;3.92;;;25.30;99.90;;;;;;4804400;29;20514;-49
2023/08/11 10:23:51;;;;;;;8.43;3.85;;;25.40;99.90;;;;;;4803433;29;20039;-51
2023/08/11 10:26:17;;;;;;;6.80;3.40;;;25.40;99.90;;;;;;4803003;29;20146;-52
2023/08/11 10:28:44;;;;;;;6.55;3.67;;;25.40;99.90;;;;;;4803965;29;20042;-50
2023/08/11 10:31:09;;;;;;;6.57;3.60;;;25.40;99.90;;;;;;4803542;29;20054;-53
2023/08/11 10:33:35;;;;;;;10.90;4.15;;;25.50;99.90;;;;;;4804115;29;20051;-52
2023/08/11 10:36:01;;;;;;;7.28;3.78;;;25.60;99.90;;;;;;4804361;29;20522;-54
2023/08/11 10:38:32;;;;;;;7.35;3.63;;;25.70;99.90;;;;;;4803874;29;20049;-51
2023/08/11 10:41:17;;;;;;;8.27;3.97;;;25.80;99.90;;;;;;4803226;29;20445;-52
2023/08/11 10:43:47;;;;;;;7.72;3.10;;;25.80;99.90;;;;;;4803618;29;20103;-51
2023/08/11 10:46:18;;;;;;;6.05;3.20;;;25.80;99.90;;;;;;4802657;29;20042;-51
2023/08/11 10:48:44;;;;;;;6.50;3.65;;;25.80;99.90;;;;;;4801601;29;20051;-51
2023/08/11 10:51:23;;;;;;;6.35;3.22;;;26.00;99.90;;;;;;4799479;29;20061;-51
2023/08/11 10:53:49;;;;;;;8.63;4.07;;;26.10;99.90;;;;;;4803318;29;20042;-52
2023/08/11 10:56:14;;;;;;;6.85;3.10;;;26.20;99.90;;;;;;4803530;29;20046;-51
2023/08/11 10:58:42;;;;;;;5.15;3.10;;;26.30;99.90;;;;;;4804192;29;20046;-51
2023/08/11 11:01:09;;;;;;;6.10;3.05;;;26.30;99.90;;;;;;4803013;29;20158;-49
2023/08/11 11:03:35;;;;;;;7.18;3.30;;;26.50;99.90;;;;;;4803032;29;20073;-54
2023/08/11 11:06:04;;;;;;;5.90;3.42;;;26.60;99.90;;;;;;4801863;29;20113;-52
2023/08/11 11:08:30;;;;;;;7.22;3.47;;;26.70;99.90;;;;;;4802690;29;20062;-52
2023/08/11 11:10:56;;;;;;;8.13;3.45;;;26.70;99.90;;;;;;4803516;29;20047;-50
2023/08/11 11:13:22;;;;;;;7.15;3.30;;;26.80;99.90;;;;;;4802570;29;20053;-51
2023/08/11 11:15:48;;;;;;;7.75;3.55;;;26.80;99.90;;;;;;4803287;29;20125;-52
2023/08/11 11:18:13;;;;;;;5.88;3.58;;;26.90;99.90;;;;;;4801219;29;20043;-52
2023/08/11 11:20:39;;;;;;;8.40;3.20;;;27.00;99.90;;;;;;4803746;29;20051;-52
2023/08/11 11:23:05;;;;;;;10.57;3.30;;;27.10;99.90;;;;;;4802689;29;20484;-52
2023/08/11 11:25:31;;;;;;;5.72;3.00;;;27.30;99.90;;;;;;4801963;29;20050;-54
2023/08/11 11:27:57;;;;;;;6.47;3.55;;;27.50;99.90;;;;;;4803123;29;20652;-53
2023/08/11 11:30:23;;;;;;;6.45;3.10;;;27.60;99.90;;;;;;4803689;29;20559;-53
2023/08/11 11:32:49;;;;;;;6.80;3.60;;;27.70;99.90;;;;;;4803212;29;20070;-49
2023/08/11 11:35:15;;;;;;;7.68;3.10;;;27.90;99.90;;;;;;4803478;29;20039;-51
2023/08/11 11:37:41;;;;;;;8.40;2.72;;;28.10;99.90;;;;;;4802754;29;20500;-49
2023/08/11 11:40:09;;;;;;;6.85;3.40;;;28.20;99.90;;;;;;4802189;29;20081;-51
2023/08/11 11:42:36;;;;;;;6.93;3.40;;;28.20;99.90;;;;;;4802858;29;20043;-50
2023/08/11 11:45:02;;;;;;;5.45;3.08;;;28.10;99.90;;;;;;4800603;29;20046;-53
2023/08/11 11:47:28;;;;;;;5.47;3.00;;;28.20;99.90;;;;;;4801379;29;20043;-51
2023/08/11 11:49:58;;;;;;;6.50;2.97;;;28.20;99.90;;;;;;4803108;29;20412;-54
2023/08/11 11:52:25;;;;;;;7.10;3.17;;;28.40;99.90;;;;;;4801139;29;20046;-49
2023/08/11 11:54:54;;;;;;;5.22;3.08;;;28.40;99.90;;;;;;4802818;29;20096;-53
2023/08/11 11:57:21;;;;;;;8.00;3.50;;;28.40;99.90;;;;;;4801591;29;20051;-51
2023/08/11 11:59:47;;;;;;;6.10;3.10;;;28.50;99.90;;;;;;4803149;29;20479;-54
2023/08/11 12:02:14;;;;;;;6.22;3.30;;;28.60;99.90;;;;;;4801730;29;20053;-50
2023/08/11 12:04:47;;;;;;;5.43;3.00;;;28.70;99.90;;;;;;4802418;29;20075;-52
2023/08/11 12:07:31;;;;;;;6.10;2.97;;;28.80;99.90;;;;;;4802810;29;20084;-50
2023/08/11 12:09:57;;;;;;;5.35;2.97;;;28.80;99.90;;;;;;4801736;29;20034;-52
2023/08/11 12:12:28;;;;;;;8.77;3.28;;;28.80;99.90;;;;;;4802203;29;20042;-50
2023/08/11 12:15:02;;;;;;;6.78;3.10;;;28.80;99.90;;;;;;4801578;29;20027;-52
2023/08/11 12:17:32;;;;;;;5.97;3.10;;;28.70;99.90;;;;;;4800933;29;20054;-52
2023/08/11 12:20:01;;;;;;;5.18;2.70;;;28.70;99.90;;;;;;4802204;29;20488;-54
2023/08/11 12:22:27;;;;;;;5.88;2.88;;;28.90;99.90;;;;;;4801986;29;20414;-51
2023/08/11 12:24:53;;;;;;;8.73;2.90;;;29.10;99.90;;;;;;4801997;29;20043;-53
2023/08/11 12:27:19;;;;;;;6.20;3.33;;;29.30;99.90;;;;;;4802597;29;20562;-51
2023/08/11 12:29:44;;;;;;;7.35;3.13;;;29.50;99.90;;;;;;4802774;29;20372;-52
2023/08/11 12:32:10;;;;;;;6.85;3.13;;;29.60;99.90;;;;;;4802354;29;20053;-51
2023/08/11 12:34:36;;;;;;;8.60;3.03;;;29.70;99.90;;;;;;4800916;29;20552;-50